Hlavní strana
METAR-TAF:

METAR-TAF

Letiště :

Mezinárodní letiště Krále Abda al-Azíze

Džidda, Saúdská Arábie

zeměpisná šířka: 21-42N, zeměpisná délka: 039-11E, výška: 15 m

Aktuální stav počasí

Zpráva byla vytvořena před 20 minutami, v 02:00 UTC
Severní vítr 4 kt
Teplota 30°C
Vlhkost vzduchu 75%
Tlak 1003 hPa
Viditelnost 10 km a více
Žádná oblačnost pod 1500 m, nevyskytují se cumulonimby.

METAR: OEJN 170200Z 35004KT CAVOK 30/25 Q1003 NOSIG

Čas: 05:20 (02:20 UTC)

Předpověď počasí

Zpráva byla vytvořena před 3 hodinami a 20 minutami, v 23:00 UTC
Předpověď platná od 17 v 00 UTC do 18 v 06 UTC
vítr z různých směrů 3 kt
Viditelnost 10 km a více
Žádná oblačnost pod 1500 m, nevyskytují se cumulonimby.
Změna
od 17 v 06 UTC do 17 v 08 UTC
Západní vítr 12 kt

TAF: OEJN 162300Z 1700/1806 VRB03KT CAVOK BECMG 1706/1708 27012KT

Stav a předpovědi počasí z více než 4 000 letišť (zprávy METAR a TAF).

Červené a žluté tečky na mapě představují dostupné meteorologické stanice.

Když kurzor umístíte na tečku, zobrazí se název stanice.

Pak kliknutím zobrazíte stav a předpověď počasí.

Chcete-li změnit mapu, kliknutím na zelené tlačítko se znaménkem +mapu přiblížíte, kliknutím na zelené tlačítko se znaménkem – mapu oddálíte a kliknutím na zelené šipky přejdete na sousední mapy.


METAR-TAF: